Banos de Copahue, Argentina
Current Conditions -  °F | °C
As of 10:30 AM on Friday 19 Dec 2014 (Local Time) from SCQP Reporting Station
Drizzle Drizzle  
Wind Chill: 55°   Ceiling: 1800
Heat Index: 55°   Visibility: 2.1mi
Dew Point: 54°   Wind: 13mph
Humidity: 94%   Direction: 340°NNW
Pressure: 29.88"   Gusts: NA
Location:  37.8°S, 71.12°W
Report Text: SCQP 191330Z 34011KT 3500 DZ FEW013 BKN018 OVC023 13/12 Q1012
Loading
Personal Weather Stations






























Interactive Weather Map New forecast layout! Learn more

10-Day Weather Forecast

Advertisements
Track Severe Weather on mobile